sensor_id;sensor_type;location;lat;lon;timestamp;P1;durP1;ratioP1;P2;durP2;ratioP2
67997;SDS011;54773;53.388;-1.504;2022-09-01T00:02:25;10.93;;;5.72;;
67997;SDS011;54773;53.388;-1.504;2022-09-01T00:04:53;13.63;;;5.30;;
67997;SDS011;54773;53.388;-1.504;2022-09-01T00:07:24;11.95;;;5.05;;
67997;SDS011;54773;53.388;-1.504;2022-09-01T00:09:55;12.52;;;5.20;;
67997;SDS011;54773;53.388;-1.504;2022-09-01T00:12:23;11.27;;;4.88;;
67997;SDS011;54773;53.388;-1.504;2022-09-01T00:14:50;12.15;;;5.00;;
67997;SDS011;54773;53.388;-1.504;2022-09-01T00:17:17;13.05;;;5.53;;
67997;SDS011;54773;53.388;-1.504;2022-09-01T00:19:44;11.30;;;5.00;;
67997;SDS011;54773;53.388;-1.504;2022-09-01T00:22:17;10.25;;;4.68;;
67997;SDS011;54773;53.388;-1.504;2022-09-01T00:24:47;11.60;;;6.25;;
67997;SDS011;54773;53.388;-1.504;2022-09-01T00:27:13;10.77;;;5.95;;
67997;SDS011;54773;53.388;-1.504;2022-09-01T00:29:44;11.25;;;5.65;;
67997;SDS011;54773;53.388;-1.504;2022-09-01T00:32:17;12.77;;;6.80;;
67997;SDS011;54773;53.388;-1.504;2022-09-01T00:34:42;12.65;;;6.68;;
67997;SDS011;54773;53.388;-1.504;2022-09-01T00:37:11;14.40;;;5.97;;
67997;SDS011;54773;53.388;-1.504;2022-09-01T00:39:36;10.20;;;5.38;;
67997;SDS011;54773;53.388;-1.504;2022-09-01T00:42:05;10.88;;;5.90;;
67997;SDS011;54773;53.388;-1.504;2022-09-01T00:44:33;15.45;;;5.53;;
67997;SDS011;54773;53.388;-1.504;2022-09-01T00:47:00;12.30;;;5.10;;
67997;SDS011;54773;53.388;-1.504;2022-09-01T00:49:29;10.10;;;5.35;;
67997;SDS011;54773;53.388;-1.504;2022-09-01T00:52:00;13.68;;;5.75;;
67997;SDS011;54773;53.388;-1.504;2022-09-01T00:54:31;11.88;;;5.13;;
67997;SDS011;54773;53.388;-1.504;2022-09-01T00:56:59;12.77;;;5.75;;
67997;SDS011;54773;53.388;-1.504;2022-09-01T00:59:29;13.07;;;6.10;;
67997;SDS011;54773;53.388;-1.504;2022-09-01T01:01:55;14.88;;;6.65;;
67997;SDS011;54773;53.388;-1.504;2022-09-01T01:04:22;13.30;;;6.72;;
67997;SDS011;54773;53.388;-1.504;2022-09-01T01:06:52;12.68;;;6.63;;
67997;SDS011;54773;53.388;-1.504;2022-09-01T01:09:26;15.13;;;6.13;;
67997;SDS011;54773;53.388;-1.504;2022-09-01T01:11:59;14.15;;;6.97;;
67997;SDS011;54773;53.388;-1.504;2022-09-01T01:14:38;15.45;;;5.97;;
67997;SDS011;54773;53.388;-1.504;2022-09-01T01:17:06;14.15;;;6.78;;
67997;SDS011;54773;53.388;-1.504;2022-09-01T01:19:43;12.70;;;7.07;;
67997;SDS011;54773;53.388;-1.504;2022-09-01T01:25:39;12.98;;;7.25;;
67997;SDS011;54773;53.388;-1.504;2022-09-01T01:28:20;13.38;;;7.85;;
67997;SDS011;54773;53.388;-1.504;2022-09-01T01:31:14;14.60;;;7.65;;
67997;SDS011;54773;53.388;-1.504;2022-09-01T01:33:44;12.90;;;6.95;;
67997;SDS011;54773;53.388;-1.504;2022-09-01T01:36:20;14.02;;;8.07;;
67997;SDS011;54773;53.388;-1.504;2022-09-01T01:38:57;15.20;;;7.63;;
67997;SDS011;54773;53.388;-1.504;2022-09-01T01:41:35;12.93;;;8.18;;
67997;SDS011;54773;53.388;-1.504;2022-09-01T01:44:07;14.75;;;8.18;;
67997;SDS011;54773;53.388;-1.504;2022-09-01T01:46:34;11.07;;;8.07;;
67997;SDS011;54773;53.388;-1.504;2022-09-01T01:49:08;12.95;;;7.63;;
67997;SDS011;54773;53.388;-1.504;2022-09-01T01:51:37;14.88;;;8.35;;
67997;SDS011;54773;53.388;-1.504;2022-09-01T01:54:04;13.57;;;8.05;;
67997;SDS011;54773;53.388;-1.504;2022-09-01T01:56:31;12.98;;;8.00;;
67997;SDS011;54773;53.388;-1.504;2022-09-01T01:59:03;13.48;;;7.68;;
67997;SDS011;54773;53.388;-1.504;2022-09-01T02:01:32;15.07;;;7.93;;
67997;SDS011;54773;53.388;-1.504;2022-09-01T02:03:58;14.20;;;8.30;;
67997;SDS011;54773;53.388;-1.504;2022-09-01T02:06:25;14.13;;;8.02;;
67997;SDS011;54773;53.388;-1.504;2022-09-01T02:08:52;10.52;;;6.80;;
67997;SDS011;54773;53.388;-1.504;2022-09-01T02:11:22;13.30;;;7.63;;
67997;SDS011;54773;53.388;-1.504;2022-09-01T02:13:53;9.88;;;6.63;;
67997;SDS011;54773;53.388;-1.504;2022-09-01T02:16:22;13.70;;;6.57;;
67997;SDS011;54773;53.388;-1.504;2022-09-01T02:18:49;11.57;;;6.53;;
67997;SDS011;54773;53.388;-1.504;2022-09-01T02:21:20;10.90;;;7.18;;
67997;SDS011;54773;53.388;-1.504;2022-09-01T02:23:52;10.75;;;6.20;;
67997;SDS011;54773;53.388;-1.504;2022-09-01T02:26:24;12.23;;;6.43;;
67997;SDS011;54773;53.388;-1.504;2022-09-01T02:29:00;13.57;;;6.75;;
67997;SDS011;54773;53.388;-1.504;2022-09-01T02:31:32;10.15;;;6.72;;
67997;SDS011;54773;53.388;-1.504;2022-09-01T02:34:05;18.60;;;7.03;;
67997;SDS011;54773;53.388;-1.504;2022-09-01T02:36:34;12.80;;;6.65;;
67997;SDS011;54773;53.388;-1.504;2022-09-01T02:39:02;10.35;;;6.75;;
67997;SDS011;54773;53.388;-1.504;2022-09-01T02:41:28;10.85;;;6.25;;
67997;SDS011;54773;53.388;-1.504;2022-09-01T02:43:56;12.55;;;6.30;;
67997;SDS011;54773;53.388;-1.504;2022-09-01T02:46:22;11.18;;;6.00;;
67997;SDS011;54773;53.388;-1.504;2022-09-01T02:48:49;9.93;;;5.90;;
67997;SDS011;54773;53.388;-1.504;2022-09-01T02:51:16;13.68;;;6.95;;
67997;SDS011;54773;53.388;-1.504;2022-09-01T02:53:45;11.40;;;5.70;;
67997;SDS011;54773;53.388;-1.504;2022-09-01T02:56:16;11.13;;;6.30;;
67997;SDS011;54773;53.388;-1.504;2022-09-01T02:58:44;14.13;;;6.07;;
67997;SDS011;54773;53.388;-1.504;2022-09-01T03:01:20;15.68;;;6.50;;
67997;SDS011;54773;53.388;-1.504;2022-09-01T03:03:55;11.77;;;5.88;;
67997;SDS011;54773;53.388;-1.504;2022-09-01T03:06:26;10.55;;;6.75;;
67997;SDS011;54773;53.388;-1.504;2022-09-01T03:08:58;12.02;;;6.07;;
67997;SDS011;54773;53.388;-1.504;2022-09-01T03:11:26;12.57;;;5.85;;
67997;SDS011;54773;53.388;-1.504;2022-09-01T03:13:53;12.25;;;5.90;;
67997;SDS011;54773;53.388;-1.504;2022-09-01T03:16:19;11.35;;;5.75;;
67997;SDS011;54773;53.388;-1.504;2022-09-01T03:18:46;10.68;;;5.50;;
67997;SDS011;54773;53.388;-1.504;2022-09-01T03:21:12;13.50;;;5.30;;
67997;SDS011;54773;53.388;-1.504;2022-09-01T03:23:42;11.10;;;5.07;;
67997;SDS011;54773;53.388;-1.504;2022-09-01T03:26:12;13.50;;;5.50;;
67997;SDS011;54773;53.388;-1.504;2022-09-01T03:28:39;14.38;;;5.88;;
67997;SDS011;54773;53.388;-1.504;2022-09-01T03:31:05;10.18;;;5.03;;
67997;SDS011;54773;53.388;-1.504;2022-09-01T03:33:39;12.77;;;5.85;;
67997;SDS011;54773;53.388;-1.504;2022-09-01T03:36:05;16.48;;;5.95;;
67997;SDS011;54773;53.388;-1.504;2022-09-01T03:38:32;13.40;;;6.28;;
67997;SDS011;54773;53.388;-1.504;2022-09-01T03:40:59;9.70;;;5.60;;
67997;SDS011;54773;53.388;-1.504;2022-09-01T03:43:28;11.40;;;5.88;;
67997;SDS011;54773;53.388;-1.504;2022-09-01T03:45:58;12.23;;;6.60;;
67997;SDS011;54773;53.388;-1.504;2022-09-01T03:48:30;13.38;;;6.15;;
67997;SDS011;54773;53.388;-1.504;2022-09-01T03:51:04;9.77;;;5.70;;
67997;SDS011;54773;53.388;-1.504;2022-09-01T03:53:32;14.85;;;6.75;;
67997;SDS011;54773;53.388;-1.504;2022-09-01T03:55:59;13.13;;;6.05;;
67997;SDS011;54773;53.388;-1.504;2022-09-01T03:58:28;10.95;;;5.82;;
67997;SDS011;54773;53.388;-1.504;2022-09-01T04:00:57;9.40;;;5.88;;
67997;SDS011;54773;53.388;-1.504;2022-09-01T04:03:26;13.38;;;5.82;;
67997;SDS011;54773;53.388;-1.504;2022-09-01T04:05:56;11.90;;;5.50;;
67997;SDS011;54773;53.388;-1.504;2022-09-01T04:08:23;16.40;;;6.85;;
67997;SDS011;54773;53.388;-1.504;2022-09-01T04:10:59;11.68;;;5.93;;
67997;SDS011;54773;53.388;-1.504;2022-09-01T04:13:35;11.88;;;5.75;;
67997;SDS011;54773;53.388;-1.504;2022-09-01T04:16:03;13.25;;;5.53;;
67997;SDS011;54773;53.388;-1.504;2022-09-01T04:18:34;12.35;;;5.47;;
67997;SDS011;54773;53.388;-1.504;2022-09-01T04:21:06;16.58;;;5.53;;
67997;SDS011;54773;53.388;-1.504;2022-09-01T04:23:34;11.63;;;5.20;;
67997;SDS011;54773;53.388;-1.504;2022-09-01T04:26:05;13.15;;;5.93;;
67997;SDS011;54773;53.388;-1.504;2022-09-01T04:28:39;13.50;;;5.72;;
67997;SDS011;54773;53.388;-1.504;2022-09-01T04:31:11;13.32;;;6.15;;
67997;SDS011;54773;53.388;-1.504;2022-09-01T04:33:43;14.07;;;6.10;;
67997;SDS011;54773;53.388;-1.504;2022-09-01T04:36:37;14.10;;;6.25;;
67997;SDS011;54773;53.388;-1.504;2022-09-01T04:39:08;11.65;;;6.07;;
67997;SDS011;54773;53.388;-1.504;2022-09-01T04:41:40;9.13;;;6.10;;
67997;SDS011;54773;53.388;-1.504;2022-09-01T04:44:17;12.55;;;6.50;;
67997;SDS011;54773;53.388;-1.504;2022-09-01T04:46:47;11.20;;;6.63;;
67997;SDS011;54773;53.388;-1.504;2022-09-01T04:49:16;13.75;;;7.18;;
67997;SDS011;54773;53.388;-1.504;2022-09-01T04:51:49;11.75;;;7.15;;
67997;SDS011;54773;53.388;-1.504;2022-09-01T04:54:20;16.48;;;7.90;;
67997;SDS011;54773;53.388;-1.504;2022-09-01T04:56:52;12.65;;;7.35;;
67997;SDS011;54773;53.388;-1.504;2022-09-01T04:59:38;12.98;;;8.40;;
67997;SDS011;54773;53.388;-1.504;2022-09-01T05:02:03;12.45;;;7.20;;
67997;SDS011;54773;53.388;-1.504;2022-09-01T05:04:32;16.48;;;8.75;;
67997;SDS011;54773;53.388;-1.504;2022-09-01T05:06:58;13.70;;;7.25;;
67997;SDS011;54773;53.388;-1.504;2022-09-01T05:09:26;12.73;;;7.43;;
67997;SDS011;54773;53.388;-1.504;2022-09-01T05:11:54;13.75;;;7.18;;
67997;SDS011;54773;53.388;-1.504;2022-09-01T05:14:22;14.32;;;7.80;;
67997;SDS011;54773;53.388;-1.504;2022-09-01T05:16:48;13.65;;;7.88;;
67997;SDS011;54773;53.388;-1.504;2022-09-01T05:19:22;14.35;;;9.70;;
67997;SDS011;54773;53.388;-1.504;2022-09-01T05:21:52;18.60;;;9.15;;
67997;SDS011;54773;53.388;-1.504;2022-09-01T05:24:22;11.65;;;8.65;;
67997;SDS011;54773;53.388;-1.504;2022-09-01T05:26:55;17.17;;;8.88;;
67997;SDS011;54773;53.388;-1.504;2022-09-01T05:29:21;16.17;;;9.13;;
67997;SDS011;54773;53.388;-1.504;2022-09-01T05:31:49;18.95;;;9.57;;
67997;SDS011;54773;53.388;-1.504;2022-09-01T05:34:17;20.25;;;10.15;;
67997;SDS011;54773;53.388;-1.504;2022-09-01T05:36:47;14.25;;;8.77;;
67997;SDS011;54773;53.388;-1.504;2022-09-01T05:39:20;18.33;;;10.63;;
67997;SDS011;54773;53.388;-1.504;2022-09-01T05:41:48;18.48;;;9.35;;
67997;SDS011;54773;53.388;-1.504;2022-09-01T05:44:15;20.45;;;9.60;;
67997;SDS011;54773;53.388;-1.504;2022-09-01T05:46:43;16.65;;;10.10;;
67997;SDS011;54773;53.388;-1.504;2022-09-01T05:49:12;15.45;;;8.68;;
67997;SDS011;54773;53.388;-1.504;2022-09-01T05:51:41;17.42;;;9.65;;
67997;SDS011;54773;53.388;-1.504;2022-09-01T05:54:17;17.45;;;9.48;;
67997;SDS011;54773;53.388;-1.504;2022-09-01T05:56:46;13.63;;;9.45;;
67997;SDS011;54773;53.388;-1.504;2022-09-01T05:59:13;21.05;;;9.95;;
67997;SDS011;54773;53.388;-1.504;2022-09-01T06:01:40;19.38;;;9.40;;
67997;SDS011;54773;53.388;-1.504;2022-09-01T06:04:07;15.80;;;9.55;;
67997;SDS011;54773;53.388;-1.504;2022-09-01T06:06:41;15.25;;;9.02;;
67997;SDS011;54773;53.388;-1.504;2022-09-01T06:09:12;14.75;;;9.02;;
67997;SDS011;54773;53.388;-1.504;2022-09-01T06:11:43;15.43;;;8.95;;
67997;SDS011;54773;53.388;-1.504;2022-09-01T06:14:14;16.23;;;8.45;;
67997;SDS011;54773;53.388;-1.504;2022-09-01T06:16:44;16.70;;;10.43;;
67997;SDS011;54773;53.388;-1.504;2022-09-01T06:19:16;12.82;;;8.73;;
67997;SDS011;54773;53.388;-1.504;2022-09-01T06:21:45;19.52;;;9.68;;
67997;SDS011;54773;53.388;-1.504;2022-09-01T06:24:14;14.60;;;9.63;;
67997;SDS011;54773;53.388;-1.504;2022-09-01T06:26:42;19.05;;;9.85;;
67997;SDS011;54773;53.388;-1.504;2022-09-01T06:29:10;16.15;;;9.60;;
67997;SDS011;54773;53.388;-1.504;2022-09-01T06:31:39;16.40;;;9.40;;
67997;SDS011;54773;53.388;-1.504;2022-09-01T06:34:07;18.48;;;8.93;;
67997;SDS011;54773;53.388;-1.504;2022-09-01T06:36:39;15.05;;;9.15;;
67997;SDS011;54773;53.388;-1.504;2022-09-01T06:39:06;16.48;;;10.00;;
67997;SDS011;54773;53.388;-1.504;2022-09-01T06:41:34;20.85;;;9.35;;
67997;SDS011;54773;53.388;-1.504;2022-09-01T06:44:03;14.57;;;9.88;;
67997;SDS011;54773;53.388;-1.504;2022-09-01T06:46:28;15.13;;;9.57;;
67997;SDS011;54773;53.388;-1.504;2022-09-01T06:48:54;14.60;;;9.05;;
67997;SDS011;54773;53.388;-1.504;2022-09-01T06:51:23;19.35;;;10.13;;
67997;SDS011;54773;53.388;-1.504;2022-09-01T06:53:56;15.65;;;10.38;;
67997;SDS011;54773;53.388;-1.504;2022-09-01T06:56:26;14.70;;;9.32;;
67997;SDS011;54773;53.388;-1.504;2022-09-01T06:58:57;12.90;;;8.75;;
67997;SDS011;54773;53.388;-1.504;2022-09-01T07:01:23;15.95;;;8.90;;
67997;SDS011;54773;53.388;-1.504;2022-09-01T07:03:50;12.57;;;9.48;;
67997;SDS011;54773;53.388;-1.504;2022-09-01T07:06:19;16.33;;;9.50;;
67997;SDS011;54773;53.388;-1.504;2022-09-01T07:08:52;14.98;;;9.32;;
67997;SDS011;54773;53.388;-1.504;2022-09-01T07:11:21;15.48;;;8.70;;
67997;SDS011;54773;53.388;-1.504;2022-09-01T07:13:50;13.55;;;8.95;;
67997;SDS011;54773;53.388;-1.504;2022-09-01T07:16:24;13.30;;;8.48;;
67997;SDS011;54773;53.388;-1.504;2022-09-01T07:18:52;15.48;;;8.13;;
67997;SDS011;54773;53.388;-1.504;2022-09-01T07:21:22;12.68;;;7.82;;
67997;SDS011;54773;53.388;-1.504;2022-09-01T07:23:49;13.77;;;8.65;;
67997;SDS011;54773;53.388;-1.504;2022-09-01T07:26:17;12.80;;;8.38;;
67997;SDS011;54773;53.388;-1.504;2022-09-01T07:28:46;15.93;;;9.00;;
67997;SDS011;54773;53.388;-1.504;2022-09-01T07:31:18;14.88;;;8.82;;
67997;SDS011;54773;53.388;-1.504;2022-09-01T07:33:47;13.18;;;7.80;;
67997;SDS011;54773;53.388;-1.504;2022-09-01T07:36:15;14.95;;;8.38;;
67997;SDS011;54773;53.388;-1.504;2022-09-01T07:38:42;18.00;;;8.10;;
67997;SDS011;54773;53.388;-1.504;2022-09-01T07:41:16;12.23;;;6.10;;
67997;SDS011;54773;53.388;-1.504;2022-09-01T07:43:42;10.02;;;5.05;;
67997;SDS011;54773;53.388;-1.504;2022-09-01T07:46:09;7.75;;;5.00;;
67997;SDS011;54773;53.388;-1.504;2022-09-01T07:48:36;7.10;;;4.25;;
67997;SDS011;54773;53.388;-1.504;2022-09-01T07:51:02;7.22;;;3.72;;
67997;SDS011;54773;53.388;-1.504;2022-09-01T07:53:31;7.38;;;3.17;;
67997;SDS011;54773;53.388;-1.504;2022-09-01T07:56:04;8.50;;;2.90;;
67997;SDS011;54773;53.388;-1.504;2022-09-01T07:58:35;8.75;;;2.85;;
67997;SDS011;54773;53.388;-1.504;2022-09-01T08:01:06;9.90;;;2.90;;
67997;SDS011;54773;53.388;-1.504;2022-09-01T08:03:33;5.68;;;2.70;;
67997;SDS011;54773;53.388;-1.504;2022-09-01T08:06:01;11.88;;;3.30;;
67997;SDS011;54773;53.388;-1.504;2022-09-01T08:08:32;7.85;;;2.78;;
67997;SDS011;54773;53.388;-1.504;2022-09-01T08:11:02;9.95;;;2.75;;
67997;SDS011;54773;53.388;-1.504;2022-09-01T08:13:30;8.82;;;2.60;;
67997;SDS011;54773;53.388;-1.504;2022-09-01T08:16:01;4.53;;;2.20;;
67997;SDS011;54773;53.388;-1.504;2022-09-01T08:18:30;8.43;;;2.75;;
67997;SDS011;54773;53.388;-1.504;2022-09-01T08:20:56;6.50;;;2.53;;
67997;SDS011;54773;53.388;-1.504;2022-09-01T08:23:26;7.38;;;2.38;;
67997;SDS011;54773;53.388;-1.504;2022-09-01T08:25:57;6.00;;;2.00;;
67997;SDS011;54773;53.388;-1.504;2022-09-01T08:28:23;4.32;;;2.13;;
67997;SDS011;54773;53.388;-1.504;2022-09-01T08:30:53;5.75;;;2.20;;
67997;SDS011;54773;53.388;-1.504;2022-09-01T08:33:19;4.07;;;1.88;;
67997;SDS011;54773;53.388;-1.504;2022-09-01T08:35:46;6.03;;;1.75;;
67997;SDS011;54773;53.388;-1.504;2022-09-01T08:38:13;6.93;;;2.20;;
67997;SDS011;54773;53.388;-1.504;2022-09-01T08:40:40;6.30;;;1.90;;
67997;SDS011;54773;53.388;-1.504;2022-09-01T08:46:01;4.95;;;1.92;;
67997;SDS011;54773;53.388;-1.504;2022-09-01T08:48:51;7.18;;;1.90;;
67997;SDS011;54773;53.388;-1.504;2022-09-01T08:51:37;8.85;;;2.45;;
67997;SDS011;54773;53.388;-1.504;2022-09-01T08:54:43;5.53;;;1.90;;
67997;SDS011;54773;53.388;-1.504;2022-09-01T09:00:01;4.75;;;1.77;;
67997;SDS011;54773;53.388;-1.504;2022-09-01T09:09:02;9.35;;;2.28;;
67997;SDS011;54773;53.388;-1.504;2022-09-01T09:11:37;6.38;;;1.52;;
67997;SDS011;54773;53.388;-1.504;2022-09-01T09:16:44;4.53;;;1.50;;
67997;SDS011;54773;53.388;-1.504;2022-09-01T09:19:21;5.03;;;1.93;;
67997;SDS011;54773;53.388;-1.504;2022-09-01T09:21:48;7.68;;;2.00;;
67997;SDS011;54773;53.388;-1.504;2022-09-01T09:24:23;6.68;;;1.80;;
67997;SDS011;54773;53.388;-1.504;2022-09-01T09:26:56;5.18;;;1.88;;
67997;SDS011;54773;53.388;-1.504;2022-09-01T09:29:27;7.32;;;1.90;;
67997;SDS011;54773;53.388;-1.504;2022-09-01T09:32:02;3.63;;;1.40;;
67997;SDS011;54773;53.388;-1.504;2022-09-01T09:34:38;4.57;;;1.60;;
67997;SDS011;54773;53.388;-1.504;2022-09-01T09:37:18;5.82;;;1.40;;
67997;SDS011;54773;53.388;-1.504;2022-09-01T09:39:44;5.88;;;2.00;;
67997;SDS011;54773;53.388;-1.504;2022-09-01T09:42:10;7.40;;;1.92;;
67997;SDS011;54773;53.388;-1.504;2022-09-01T09:44:44;5.78;;;1.80;;
67997;SDS011;54773;53.388;-1.504;2022-09-01T09:47:32;5.03;;;1.70;;
67997;SDS011;54773;53.388;-1.504;2022-09-01T09:52:37;6.18;;;1.90;;
67997;SDS011;54773;53.388;-1.504;2022-09-01T09:55:05;7.72;;;1.67;;
67997;SDS011;54773;53.388;-1.504;2022-09-01T09:57:49;7.05;;;1.98;;
67997;SDS011;54773;53.388;-1.504;2022-09-01T10:02:50;5.70;;;1.80;;
67997;SDS011;54773;53.388;-1.504;2022-09-01T10:08:05;5.18;;;1.50;;
67997;SDS011;54773;53.388;-1.504;2022-09-01T10:10:38;6.95;;;1.70;;
67997;SDS011;54773;53.388;-1.504;2022-09-01T10:13:19;8.73;;;1.63;;
67997;SDS011;54773;53.388;-1.504;2022-09-01T10:15:48;5.03;;;1.60;;
67997;SDS011;54773;53.388;-1.504;2022-09-01T10:18:23;6.25;;;1.80;;
67997;SDS011;54773;53.388;-1.504;2022-09-01T10:20:59;9.50;;;1.55;;
67997;SDS011;54773;53.388;-1.504;2022-09-01T10:23:27;5.68;;;1.50;;
67997;SDS011;54773;53.388;-1.504;2022-09-01T10:25:54;7.00;;;1.77;;
67997;SDS011;54773;53.388;-1.504;2022-09-01T10:28:23;5.60;;;1.40;;
67997;SDS011;54773;53.388;-1.504;2022-09-01T10:30:51;5.60;;;1.70;;
67997;SDS011;54773;53.388;-1.504;2022-09-01T10:33:19;8.30;;;1.80;;
67997;SDS011;54773;53.388;-1.504;2022-09-01T10:35:52;3.50;;;1.30;;
67997;SDS011;54773;53.388;-1.504;2022-09-01T10:38:20;6.55;;;1.67;;
67997;SDS011;54773;53.388;-1.504;2022-09-01T10:40:57;3.75;;;1.40;;
67997;SDS011;54773;53.388;-1.504;2022-09-01T10:48:48;4.88;;;1.48;;
67997;SDS011;54773;53.388;-1.504;2022-09-01T10:53:41;6.30;;;1.65;;
67997;SDS011;54773;53.388;-1.504;2022-09-01T11:04:12;6.97;;;1.80;;
67997;SDS011;54773;53.388;-1.504;2022-09-01T11:22:59;4.93;;;1.63;;
67997;SDS011;54773;53.388;-1.504;2022-09-01T11:33:51;6.07;;;1.40;;
67997;SDS011;54773;53.388;-1.504;2022-09-01T11:41:28;4.00;;;1.20;;
67997;SDS011;54773;53.388;-1.504;2022-09-01T11:44:00;6.45;;;1.23;;
67997;SDS011;54773;53.388;-1.504;2022-09-01T11:46:31;3.85;;;1.10;;
67997;SDS011;54773;53.388;-1.504;2022-09-01T11:48:59;4.38;;;1.10;;
67997;SDS011;54773;53.388;-1.504;2022-09-01T11:51:46;6.22;;;1.70;;
67997;SDS011;54773;53.388;-1.504;2022-09-01T11:54:13;6.05;;;1.42;;
67997;SDS011;54773;53.388;-1.504;2022-09-01T11:56:39;5.80;;;1.67;;
67997;SDS011;54773;53.388;-1.504;2022-09-01T11:59:06;7.18;;;1.73;;
67997;SDS011;54773;53.388;-1.504;2022-09-01T12:01:33;6.43;;;1.70;;
67997;SDS011;54773;53.388;-1.504;2022-09-01T12:04:19;3.88;;;1.27;;
67997;SDS011;54773;53.388;-1.504;2022-09-01T12:06:55;4.57;;;1.40;;
67997;SDS011;54773;53.388;-1.504;2022-09-01T12:09:30;3.22;;;0.90;;
67997;SDS011;54773;53.388;-1.504;2022-09-01T12:15:17;6.68;;;1.40;;
67997;SDS011;54773;53.388;-1.504;2022-09-01T12:17:48;5.78;;;1.33;;
67997;SDS011;54773;53.388;-1.504;2022-09-01T12:20:19;8.95;;;1.25;;
67997;SDS011;54773;53.388;-1.504;2022-09-01T12:22:44;5.00;;;1.35;;
67997;SDS011;54773;53.388;-1.504;2022-09-01T12:25:20;5.45;;;1.38;;
67997;SDS011;54773;53.388;-1.504;2022-09-01T12:27:50;5.82;;;1.30;;
67997;SDS011;54773;53.388;-1.504;2022-09-01T12:30:16;6.03;;;1.58;;
67997;SDS011;54773;53.388;-1.504;2022-09-01T12:32:43;5.90;;;1.38;;
67997;SDS011;54773;53.388;-1.504;2022-09-01T12:35:16;5.15;;;1.30;;
67997;SDS011;54773;53.388;-1.504;2022-09-01T12:37:47;5.53;;;1.50;;
67997;SDS011;54773;53.388;-1.504;2022-09-01T12:40:23;5.38;;;1.52;;
67997;SDS011;54773;53.388;-1.504;2022-09-01T12:42:58;5.20;;;1.20;;
67997;SDS011;54773;53.388;-1.504;2022-09-01T12:45:43;6.07;;;1.73;;
67997;SDS011;54773;53.388;-1.504;2022-09-01T12:48:24;5.57;;;1.38;;
67997;SDS011;54773;53.388;-1.504;2022-09-01T12:50:53;5.88;;;1.50;;
67997;SDS011;54773;53.388;-1.504;2022-09-01T12:53:20;5.32;;;1.40;;
67997;SDS011;54773;53.388;-1.504;2022-09-01T12:55:55;6.50;;;1.45;;
67997;SDS011;54773;53.388;-1.504;2022-09-01T12:58:24;6.28;;;1.50;;
67997;SDS011;54773;53.388;-1.504;2022-09-01T13:03:29;7.63;;;2.10;;
67997;SDS011;54773;53.388;-1.504;2022-09-01T13:05:57;3.83;;;1.20;;
67997;SDS011;54773;53.388;-1.504;2022-09-01T13:08:25;4.45;;;1.60;;
67997;SDS011;54773;53.388;-1.504;2022-09-01T13:11:09;5.85;;;1.52;;
67997;SDS011;54773;53.388;-1.504;2022-09-01T13:13:38;7.88;;;1.70;;
67997;SDS011;54773;53.388;-1.504;2022-09-01T13:16:04;5.13;;;1.30;;
67997;SDS011;54773;53.388;-1.504;2022-09-01T13:18:37;6.03;;;1.85;;
67997;SDS011;54773;53.388;-1.504;2022-09-01T13:21:17;8.43;;;1.65;;
67997;SDS011;54773;53.388;-1.504;2022-09-01T13:23:43;7.63;;;1.45;;
67997;SDS011;54773;53.388;-1.504;2022-09-01T13:26:09;7.25;;;1.60;;
67997;SDS011;54773;53.388;-1.504;2022-09-01T13:28:54;7.43;;;1.60;;
67997;SDS011;54773;53.388;-1.504;2022-09-01T13:31:21;5.25;;;1.60;;
67997;SDS011;54773;53.388;-1.504;2022-09-01T13:33:47;4.20;;;1.40;;
67997;SDS011;54773;53.388;-1.504;2022-09-01T13:36:13;5.20;;;1.40;;
67997;SDS011;54773;53.388;-1.504;2022-09-01T13:38:40;5.75;;;1.17;;
67997;SDS011;54773;53.388;-1.504;2022-09-01T13:41:06;4.05;;;1.30;;
67997;SDS011;54773;53.388;-1.504;2022-09-01T13:43:35;4.07;;;1.00;;
67997;SDS011;54773;53.388;-1.504;2022-09-01T13:46:02;4.68;;;1.20;;
67997;SDS011;54773;53.388;-1.504;2022-09-01T13:48:27;4.05;;;1.33;;
67997;SDS011;54773;53.388;-1.504;2022-09-01T13:50:53;5.97;;;1.23;;
67997;SDS011;54773;53.388;-1.504;2022-09-01T13:53:20;5.22;;;1.30;;
67997;SDS011;54773;53.388;-1.504;2022-09-01T13:55:46;5.57;;;1.45;;
67997;SDS011;54773;53.388;-1.504;2022-09-01T13:58:14;7.93;;;1.58;;
67997;SDS011;54773;53.388;-1.504;2022-09-01T14:00:42;5.43;;;1.60;;
67997;SDS011;54773;53.388;-1.504;2022-09-01T14:03:14;5.68;;;1.48;;
67997;SDS011;54773;53.388;-1.504;2022-09-01T14:05:43;7.57;;;1.42;;
67997;SDS011;54773;53.388;-1.504;2022-09-01T14:08:11;6.07;;;1.25;;
67997;SDS011;54773;53.388;-1.504;2022-09-01T14:10:45;4.95;;;1.50;;
67997;SDS011;54773;53.388;-1.504;2022-09-01T14:13:13;6.35;;;1.40;;
67997;SDS011;54773;53.388;-1.504;2022-09-01T14:15:42;4.88;;;1.65;;
67997;SDS011;54773;53.388;-1.504;2022-09-01T14:18:08;9.57;;;1.60;;
67997;SDS011;54773;53.388;-1.504;2022-09-01T14:20:35;8.90;;;1.73;;
67997;SDS011;54773;53.388;-1.504;2022-09-01T14:23:04;4.40;;;1.45;;
67997;SDS011;54773;53.388;-1.504;2022-09-01T14:25:31;5.32;;;1.50;;
67997;SDS011;54773;53.388;-1.504;2022-09-01T14:27:58;8.02;;;1.55;;
67997;SDS011;54773;53.388;-1.504;2022-09-01T14:30:27;8.93;;;2.17;;
67997;SDS011;54773;53.388;-1.504;2022-09-01T14:32:53;4.88;;;1.75;;
67997;SDS011;54773;53.388;-1.504;2022-09-01T14:35:20;5.28;;;1.70;;
67997;SDS011;54773;53.388;-1.504;2022-09-01T14:37:49;6.22;;;1.92;;
67997;SDS011;54773;53.388;-1.504;2022-09-01T14:40:16;7.43;;;1.95;;
67997;SDS011;54773;53.388;-1.504;2022-09-01T14:42:45;5.80;;;1.60;;
67997;SDS011;54773;53.388;-1.504;2022-09-01T14:45:23;8.68;;;1.52;;
67997;SDS011;54773;53.388;-1.504;2022-09-01T14:47:53;8.10;;;1.80;;
67997;SDS011;54773;53.388;-1.504;2022-09-01T14:50:20;7.78;;;1.98;;
67997;SDS011;54773;53.388;-1.504;2022-09-01T14:52:49;15.45;;;2.03;;
67997;SDS011;54773;53.388;-1.504;2022-09-01T14:55:19;8.05;;;1.60;;
67997;SDS011;54773;53.388;-1.504;2022-09-01T14:57:52;7.15;;;1.38;;
67997;SDS011;54773;53.388;-1.504;2022-09-01T15:00:19;4.97;;;1.42;;
67997;SDS011;54773;53.388;-1.504;2022-09-01T15:02:46;6.00;;;1.60;;
67997;SDS011;54773;53.388;-1.504;2022-09-01T15:05:12;6.32;;;1.75;;
67997;SDS011;54773;53.388;-1.504;2022-09-01T15:07:43;7.53;;;1.92;;
67997;SDS011;54773;53.388;-1.504;2022-09-01T15:10:17;10.43;;;2.17;;
67997;SDS011;54773;53.388;-1.504;2022-09-01T15:12:45;5.43;;;1.77;;
67997;SDS011;54773;53.388;-1.504;2022-09-01T15:15:14;7.25;;;1.77;;
67997;SDS011;54773;53.388;-1.504;2022-09-01T15:17:40;7.13;;;2.33;;
67997;SDS011;54773;53.388;-1.504;2022-09-01T15:20:09;7.15;;;2.22;;
67997;SDS011;54773;53.388;-1.504;2022-09-01T15:22:55;7.47;;;2.28;;
67997;SDS011;54773;53.388;-1.504;2022-09-01T15:25:22;6.80;;;2.15;;
67997;SDS011;54773;53.388;-1.504;2022-09-01T15:27:47;7.32;;;1.95;;
67997;SDS011;54773;53.388;-1.504;2022-09-01T15:30:14;6.03;;;1.90;;
67997;SDS011;54773;53.388;-1.504;2022-09-01T15:32:44;9.40;;;1.83;;
67997;SDS011;54773;53.388;-1.504;2022-09-01T15:35:16;8.35;;;2.10;;
67997;SDS011;54773;53.388;-1.504;2022-09-01T15:37:46;5.50;;;1.58;;
67997;SDS011;54773;53.388;-1.504;2022-09-01T15:40:16;5.03;;;1.73;;
67997;SDS011;54773;53.388;-1.504;2022-09-01T15:42:43;6.40;;;2.10;;
67997;SDS011;54773;53.388;-1.504;2022-09-01T15:45:12;8.88;;;2.10;;
67997;SDS011;54773;53.388;-1.504;2022-09-01T15:47:40;9.38;;;2.00;;
67997;SDS011;54773;53.388;-1.504;2022-09-01T15:50:07;6.15;;;2.03;;
67997;SDS011;54773;53.388;-1.504;2022-09-01T15:52:48;6.15;;;1.85;;
67997;SDS011;54773;53.388;-1.504;2022-09-01T15:55:16;6.22;;;2.35;;
67997;SDS011;54773;53.388;-1.504;2022-09-01T15:57:54;6.75;;;1.73;;
67997;SDS011;54773;53.388;-1.504;2022-09-01T16:00:23;6.50;;;1.60;;
67997;SDS011;54773;53.388;-1.504;2022-09-01T16:02:56;5.85;;;1.80;;
67997;SDS011;54773;53.388;-1.504;2022-09-01T16:05:32;7.90;;;1.45;;